sensor_id;sensor_type;location;lat;lon;timestamp;P1;durP1;ratioP1;P2;durP2;ratioP2
22754;SDS011;11544;42.020;23.094;2022-07-17T00:01:02;7.82;;;4.80;;
22754;SDS011;11544;42.020;23.094;2022-07-17T00:03:27;6.20;;;4.40;;
22754;SDS011;11544;42.020;23.094;2022-07-17T00:05:53;5.82;;;4.55;;
22754;SDS011;11544;42.020;23.094;2022-07-17T00:08:19;6.22;;;3.83;;
22754;SDS011;11544;42.020;23.094;2022-07-17T00:10:44;9.48;;;4.30;;
22754;SDS011;11544;42.020;23.094;2022-07-17T00:13:10;4.88;;;3.85;;
22754;SDS011;11544;42.020;23.094;2022-07-17T00:15:36;4.97;;;4.43;;
22754;SDS011;11544;42.020;23.094;2022-07-17T00:18:02;5.93;;;4.07;;
22754;SDS011;11544;42.020;23.094;2022-07-17T00:20:28;5.03;;;4.53;;
22754;SDS011;11544;42.020;23.094;2022-07-17T00:22:55;5.15;;;4.65;;
22754;SDS011;11544;42.020;23.094;2022-07-17T00:25:21;5.18;;;4.45;;
22754;SDS011;11544;42.020;23.094;2022-07-17T00:27:48;4.88;;;4.40;;
22754;SDS011;11544;42.020;23.094;2022-07-17T00:30:14;7.57;;;4.60;;
22754;SDS011;11544;42.020;23.094;2022-07-17T00:32:40;6.60;;;4.38;;
22754;SDS011;11544;42.020;23.094;2022-07-17T00:35:06;5.32;;;4.10;;
22754;SDS011;11544;42.020;23.094;2022-07-17T00:37:39;6.63;;;4.63;;
22754;SDS011;11544;42.020;23.094;2022-07-17T00:40:07;5.95;;;4.53;;
22754;SDS011;11544;42.020;23.094;2022-07-17T00:42:34;5.22;;;4.50;;
22754;SDS011;11544;42.020;23.094;2022-07-17T00:45:01;6.22;;;4.55;;
22754;SDS011;11544;42.020;23.094;2022-07-17T00:47:26;4.72;;;4.18;;
22754;SDS011;11544;42.020;23.094;2022-07-17T00:49:52;5.75;;;4.05;;
22754;SDS011;11544;42.020;23.094;2022-07-17T00:52:18;5.35;;;4.75;;
22754;SDS011;11544;42.020;23.094;2022-07-17T00:54:44;5.70;;;4.43;;
22754;SDS011;11544;42.020;23.094;2022-07-17T00:57:12;6.05;;;4.30;;
22754;SDS011;11544;42.020;23.094;2022-07-17T00:59:40;4.38;;;4.07;;
22754;SDS011;11544;42.020;23.094;2022-07-17T01:02:08;7.55;;;3.97;;
22754;SDS011;11544;42.020;23.094;2022-07-17T01:04:35;4.47;;;4.07;;
22754;SDS011;11544;42.020;23.094;2022-07-17T01:07:02;5.13;;;3.92;;
22754;SDS011;11544;42.020;23.094;2022-07-17T01:09:29;8.32;;;4.20;;
22754;SDS011;11544;42.020;23.094;2022-07-17T01:11:56;4.80;;;4.40;;
22754;SDS011;11544;42.020;23.094;2022-07-17T01:14:22;5.03;;;4.45;;
22754;SDS011;11544;42.020;23.094;2022-07-17T01:16:50;7.15;;;4.95;;
22754;SDS011;11544;42.020;23.094;2022-07-17T01:19:17;5.18;;;4.70;;
22754;SDS011;11544;42.020;23.094;2022-07-17T01:21:44;4.50;;;4.10;;
22754;SDS011;11544;42.020;23.094;2022-07-17T01:24:12;5.03;;;4.07;;
22754;SDS011;11544;42.020;23.094;2022-07-17T01:26:45;4.45;;;4.05;;
22754;SDS011;11544;42.020;23.094;2022-07-17T01:29:14;4.90;;;4.30;;
22754;SDS011;11544;42.020;23.094;2022-07-17T01:31:40;5.18;;;4.68;;
22754;SDS011;11544;42.020;23.094;2022-07-17T01:34:07;4.95;;;4.50;;
22754;SDS011;11544;42.020;23.094;2022-07-17T01:36:34;6.68;;;5.13;;
22754;SDS011;11544;42.020;23.094;2022-07-17T01:39:00;5.90;;;5.03;;
22754;SDS011;11544;42.020;23.094;2022-07-17T01:41:27;4.97;;;4.50;;
22754;SDS011;11544;42.020;23.094;2022-07-17T01:43:53;6.55;;;4.50;;
22754;SDS011;11544;42.020;23.094;2022-07-17T01:46:18;6.78;;;4.47;;
22754;SDS011;11544;42.020;23.094;2022-07-17T01:48:44;5.25;;;4.38;;
22754;SDS011;11544;42.020;23.094;2022-07-17T01:51:10;6.43;;;4.53;;
22754;SDS011;11544;42.020;23.094;2022-07-17T01:53:36;5.93;;;4.68;;
22754;SDS011;11544;42.020;23.094;2022-07-17T01:56:02;7.18;;;4.60;;
22754;SDS011;11544;42.020;23.094;2022-07-17T01:58:28;5.70;;;4.43;;
22754;SDS011;11544;42.020;23.094;2022-07-17T02:00:54;5.05;;;4.63;;
22754;SDS011;11544;42.020;23.094;2022-07-17T02:03:20;6.03;;;4.85;;
22754;SDS011;11544;42.020;23.094;2022-07-17T02:05:46;5.13;;;4.25;;
22754;SDS011;11544;42.020;23.094;2022-07-17T02:08:11;5.80;;;4.90;;
22754;SDS011;11544;42.020;23.094;2022-07-17T02:10:37;5.80;;;4.57;;
22754;SDS011;11544;42.020;23.094;2022-07-17T02:13:03;5.15;;;4.53;;
22754;SDS011;11544;42.020;23.094;2022-07-17T02:15:29;5.45;;;4.72;;
22754;SDS011;11544;42.020;23.094;2022-07-17T02:17:55;6.10;;;5.30;;
22754;SDS011;11544;42.020;23.094;2022-07-17T02:20:21;8.77;;;5.20;;
22754;SDS011;11544;42.020;23.094;2022-07-17T02:22:47;6.43;;;4.88;;
22754;SDS011;11544;42.020;23.094;2022-07-17T02:25:13;5.25;;;4.75;;
22754;SDS011;11544;42.020;23.094;2022-07-17T02:27:39;5.13;;;4.43;;
22754;SDS011;11544;42.020;23.094;2022-07-17T02:30:08;6.97;;;5.10;;
22754;SDS011;11544;42.020;23.094;2022-07-17T02:32:41;7.22;;;4.43;;
22754;SDS011;11544;42.020;23.094;2022-07-17T02:35:08;5.47;;;4.65;;
22754;SDS011;11544;42.020;23.094;2022-07-17T02:37:35;5.32;;;4.55;;
22754;SDS011;11544;42.020;23.094;2022-07-17T02:40:00;5.55;;;4.65;;
22754;SDS011;11544;42.020;23.094;2022-07-17T02:42:27;5.13;;;4.50;;
22754;SDS011;11544;42.020;23.094;2022-07-17T02:44:54;5.22;;;4.75;;
22754;SDS011;11544;42.020;23.094;2022-07-17T02:47:23;10.20;;;4.93;;
22754;SDS011;11544;42.020;23.094;2022-07-17T02:50:00;7.03;;;4.93;;
22754;SDS011;11544;42.020;23.094;2022-07-17T02:52:29;5.75;;;4.70;;
22754;SDS011;11544;42.020;23.094;2022-07-17T02:54:56;5.90;;;5.30;;
22754;SDS011;11544;42.020;23.094;2022-07-17T02:57:21;7.35;;;4.72;;
22754;SDS011;11544;42.020;23.094;2022-07-17T02:59:47;7.50;;;5.28;;
22754;SDS011;11544;42.020;23.094;2022-07-17T03:02:13;5.28;;;4.85;;
22754;SDS011;11544;42.020;23.094;2022-07-17T03:04:39;5.75;;;4.88;;
22754;SDS011;11544;42.020;23.094;2022-07-17T03:07:05;6.80;;;4.47;;
22754;SDS011;11544;42.020;23.094;2022-07-17T03:09:31;5.20;;;4.00;;
22754;SDS011;11544;42.020;23.094;2022-07-17T03:11:57;5.30;;;4.80;;
22754;SDS011;11544;42.020;23.094;2022-07-17T03:14:23;7.40;;;4.70;;
22754;SDS011;11544;42.020;23.094;2022-07-17T03:16:49;6.90;;;5.28;;
22754;SDS011;11544;42.020;23.094;2022-07-17T03:19:15;4.95;;;4.43;;
22754;SDS011;11544;42.020;23.094;2022-07-17T03:21:41;7.32;;;4.40;;
22754;SDS011;11544;42.020;23.094;2022-07-17T03:24:07;6.00;;;4.55;;
22754;SDS011;11544;42.020;23.094;2022-07-17T03:26:33;5.50;;;4.45;;
22754;SDS011;11544;42.020;23.094;2022-07-17T03:28:58;6.65;;;4.97;;
22754;SDS011;11544;42.020;23.094;2022-07-17T03:31:24;5.95;;;4.53;;
22754;SDS011;11544;42.020;23.094;2022-07-17T03:33:49;5.95;;;5.00;;
22754;SDS011;11544;42.020;23.094;2022-07-17T03:36:15;5.35;;;4.85;;
22754;SDS011;11544;42.020;23.094;2022-07-17T03:38:41;5.80;;;4.97;;
22754;SDS011;11544;42.020;23.094;2022-07-17T03:41:07;6.05;;;4.25;;
22754;SDS011;11544;42.020;23.094;2022-07-17T03:43:32;5.32;;;4.82;;
22754;SDS011;11544;42.020;23.094;2022-07-17T03:45:58;5.43;;;4.93;;
22754;SDS011;11544;42.020;23.094;2022-07-17T03:48:24;5.20;;;4.70;;
22754;SDS011;11544;42.020;23.094;2022-07-17T03:50:49;5.70;;;4.35;;
22754;SDS011;11544;42.020;23.094;2022-07-17T03:53:15;5.57;;;4.80;;
22754;SDS011;11544;42.020;23.094;2022-07-17T03:55:41;5.35;;;4.72;;
22754;SDS011;11544;42.020;23.094;2022-07-17T03:58:06;6.20;;;5.25;;
22754;SDS011;11544;42.020;23.094;2022-07-17T04:00:32;8.32;;;5.20;;
22754;SDS011;11544;42.020;23.094;2022-07-17T04:02:58;5.88;;;5.20;;
22754;SDS011;11544;42.020;23.094;2022-07-17T04:05:24;6.20;;;5.70;;
22754;SDS011;11544;42.020;23.094;2022-07-17T04:07:49;6.45;;;4.90;;
22754;SDS011;11544;42.020;23.094;2022-07-17T04:10:15;6.70;;;4.55;;
22754;SDS011;11544;42.020;23.094;2022-07-17T04:12:41;5.90;;;4.72;;
22754;SDS011;11544;42.020;23.094;2022-07-17T04:15:08;5.45;;;4.57;;
22754;SDS011;11544;42.020;23.094;2022-07-17T04:17:34;11.50;;;4.70;;
22754;SDS011;11544;42.020;23.094;2022-07-17T04:20:01;4.70;;;4.22;;
22754;SDS011;11544;42.020;23.094;2022-07-17T04:22:27;6.15;;;4.53;;
22754;SDS011;11544;42.020;23.094;2022-07-17T04:24:52;5.28;;;4.30;;
22754;SDS011;11544;42.020;23.094;2022-07-17T04:27:18;6.05;;;4.35;;
22754;SDS011;11544;42.020;23.094;2022-07-17T04:29:44;5.15;;;4.47;;
22754;SDS011;11544;42.020;23.094;2022-07-17T04:32:10;4.53;;;4.13;;
22754;SDS011;11544;42.020;23.094;2022-07-17T04:34:37;4.85;;;4.38;;
22754;SDS011;11544;42.020;23.094;2022-07-17T04:37:03;8.93;;;3.92;;
22754;SDS011;11544;42.020;23.094;2022-07-17T04:39:29;4.97;;;4.10;;
22754;SDS011;11544;42.020;23.094;2022-07-17T04:41:55;6.75;;;3.80;;
22754;SDS011;11544;42.020;23.094;2022-07-17T04:44:21;4.28;;;3.90;;
22754;SDS011;11544;42.020;23.094;2022-07-17T04:46:47;5.00;;;3.88;;
22754;SDS011;11544;42.020;23.094;2022-07-17T04:49:18;6.57;;;4.35;;
22754;SDS011;11544;42.020;23.094;2022-07-17T04:51:44;6.15;;;4.63;;
22754;SDS011;11544;42.020;23.094;2022-07-17T04:54:09;5.35;;;4.35;;
22754;SDS011;11544;42.020;23.094;2022-07-17T04:56:35;5.47;;;4.38;;
22754;SDS011;11544;42.020;23.094;2022-07-17T04:59:06;5.40;;;4.00;;
22754;SDS011;11544;42.020;23.094;2022-07-17T05:01:32;6.82;;;4.50;;
22754;SDS011;11544;42.020;23.094;2022-07-17T05:03:59;4.70;;;3.58;;
22754;SDS011;11544;42.020;23.094;2022-07-17T05:06:25;6.88;;;3.97;;
22754;SDS011;11544;42.020;23.094;2022-07-17T05:08:51;7.57;;;4.15;;
22754;SDS011;11544;42.020;23.094;2022-07-17T05:11:16;7.07;;;4.45;;
22754;SDS011;11544;42.020;23.094;2022-07-17T05:13:42;10.07;;;4.45;;
22754;SDS011;11544;42.020;23.094;2022-07-17T05:16:08;6.00;;;4.50;;
22754;SDS011;11544;42.020;23.094;2022-07-17T05:21:20;11.48;;;5.72;;
22754;SDS011;11544;42.020;23.094;2022-07-17T05:23:45;9.38;;;6.13;;
22754;SDS011;11544;42.020;23.094;2022-07-17T05:26:11;7.20;;;6.35;;
22754;SDS011;11544;42.020;23.094;2022-07-17T05:28:37;11.27;;;6.75;;
22754;SDS011;11544;42.020;23.094;2022-07-17T05:31:03;12.07;;;7.32;;
22754;SDS011;11544;42.020;23.094;2022-07-17T05:33:29;13.23;;;8.55;;
22754;SDS011;11544;42.020;23.094;2022-07-17T05:35:54;12.77;;;8.82;;
22754;SDS011;11544;42.020;23.094;2022-07-17T05:38:20;12.25;;;8.75;;
22754;SDS011;11544;42.020;23.094;2022-07-17T05:40:46;14.20;;;9.18;;
22754;SDS011;11544;42.020;23.094;2022-07-17T05:43:11;10.77;;;8.30;;
22754;SDS011;11544;42.020;23.094;2022-07-17T05:45:37;12.68;;;7.90;;
22754;SDS011;11544;42.020;23.094;2022-07-17T05:48:05;11.70;;;7.25;;
22754;SDS011;11544;42.020;23.094;2022-07-17T05:50:32;21.00;;;7.45;;
22754;SDS011;11544;42.020;23.094;2022-07-17T05:52:59;9.73;;;6.97;;
22754;SDS011;11544;42.020;23.094;2022-07-17T05:55:26;13.73;;;7.13;;
22754;SDS011;11544;42.020;23.094;2022-07-17T05:57:52;13.68;;;6.57;;
22754;SDS011;11544;42.020;23.094;2022-07-17T06:00:17;8.27;;;6.30;;
22754;SDS011;11544;42.020;23.094;2022-07-17T06:02:43;6.57;;;5.40;;
22754;SDS011;11544;42.020;23.094;2022-07-17T06:05:10;8.02;;;5.88;;
22754;SDS011;11544;42.020;23.094;2022-07-17T06:07:36;8.80;;;5.63;;
22754;SDS011;11544;42.020;23.094;2022-07-17T06:10:03;9.32;;;5.47;;
22754;SDS011;11544;42.020;23.094;2022-07-17T06:12:29;9.10;;;6.15;;
22754;SDS011;11544;42.020;23.094;2022-07-17T06:14:55;9.23;;;5.45;;
22754;SDS011;11544;42.020;23.094;2022-07-17T06:17:21;11.60;;;5.72;;
22754;SDS011;11544;42.020;23.094;2022-07-17T06:19:47;14.07;;;6.40;;
22754;SDS011;11544;42.020;23.094;2022-07-17T06:22:19;15.02;;;5.45;;
22754;SDS011;11544;42.020;23.094;2022-07-17T06:24:46;10.57;;;5.65;;
22754;SDS011;11544;42.020;23.094;2022-07-17T06:27:14;9.40;;;5.60;;
22754;SDS011;11544;42.020;23.094;2022-07-17T06:29:40;6.50;;;4.90;;
22754;SDS011;11544;42.020;23.094;2022-07-17T06:32:06;9.70;;;4.85;;
22754;SDS011;11544;42.020;23.094;2022-07-17T06:34:31;6.13;;;4.72;;
22754;SDS011;11544;42.020;23.094;2022-07-17T06:36:57;6.15;;;3.97;;
22754;SDS011;11544;42.020;23.094;2022-07-17T06:39:23;7.05;;;4.60;;
22754;SDS011;11544;42.020;23.094;2022-07-17T06:41:49;10.25;;;4.43;;
22754;SDS011;11544;42.020;23.094;2022-07-17T06:44:14;8.63;;;4.28;;
22754;SDS011;11544;42.020;23.094;2022-07-17T06:46:40;11.57;;;4.25;;
22754;SDS011;11544;42.020;23.094;2022-07-17T06:49:06;6.63;;;4.10;;
22754;SDS011;11544;42.020;23.094;2022-07-17T06:51:31;9.82;;;4.93;;
22754;SDS011;11544;42.020;23.094;2022-07-17T06:53:57;11.02;;;4.25;;
22754;SDS011;11544;42.020;23.094;2022-07-17T06:56:23;9.30;;;3.97;;
22754;SDS011;11544;42.020;23.094;2022-07-17T06:58:49;9.88;;;4.32;;
22754;SDS011;11544;42.020;23.094;2022-07-17T07:01:15;11.00;;;4.80;;
22754;SDS011;11544;42.020;23.094;2022-07-17T07:03:42;10.38;;;3.78;;
22754;SDS011;11544;42.020;23.094;2022-07-17T07:06:08;6.53;;;3.65;;
22754;SDS011;11544;42.020;23.094;2022-07-17T07:08:34;8.82;;;3.17;;
22754;SDS011;11544;42.020;23.094;2022-07-17T07:11:01;9.18;;;3.25;;
22754;SDS011;11544;42.020;23.094;2022-07-17T07:13:27;8.38;;;3.15;;
22754;SDS011;11544;42.020;23.094;2022-07-17T07:15:53;8.27;;;3.13;;
22754;SDS011;11544;42.020;23.094;2022-07-17T07:18:20;5.72;;;3.17;;
22754;SDS011;11544;42.020;23.094;2022-07-17T07:20:46;8.70;;;3.40;;
22754;SDS011;11544;42.020;23.094;2022-07-17T07:23:12;9.90;;;3.55;;
22754;SDS011;11544;42.020;23.094;2022-07-17T07:25:38;5.80;;;3.00;;
22754;SDS011;11544;42.020;23.094;2022-07-17T07:28:04;9.25;;;2.97;;
22754;SDS011;11544;42.020;23.094;2022-07-17T07:30:31;9.45;;;3.05;;
22754;SDS011;11544;42.020;23.094;2022-07-17T07:32:57;6.15;;;3.10;;
22754;SDS011;11544;42.020;23.094;2022-07-17T07:35:22;6.60;;;3.30;;
22754;SDS011;11544;42.020;23.094;2022-07-17T07:37:48;7.57;;;2.92;;
22754;SDS011;11544;42.020;23.094;2022-07-17T07:40:14;6.30;;;2.97;;
22754;SDS011;11544;42.020;23.094;2022-07-17T07:42:39;7.28;;;3.17;;
22754;SDS011;11544;42.020;23.094;2022-07-17T07:45:06;9.38;;;3.00;;
22754;SDS011;11544;42.020;23.094;2022-07-17T07:47:32;6.10;;;2.83;;
22754;SDS011;11544;42.020;23.094;2022-07-17T07:49:58;5.65;;;2.55;;
22754;SDS011;11544;42.020;23.094;2022-07-17T07:52:23;4.82;;;3.38;;
22754;SDS011;11544;42.020;23.094;2022-07-17T07:54:49;6.85;;;3.03;;
22754;SDS011;11544;42.020;23.094;2022-07-17T07:57:15;6.78;;;3.05;;
22754;SDS011;11544;42.020;23.094;2022-07-17T07:59:41;3.90;;;2.72;;
22754;SDS011;11544;42.020;23.094;2022-07-17T08:02:06;5.70;;;2.72;;
22754;SDS011;11544;42.020;23.094;2022-07-17T08:04:32;6.28;;;2.90;;
22754;SDS011;11544;42.020;23.094;2022-07-17T08:06:58;5.18;;;2.50;;
22754;SDS011;11544;42.020;23.094;2022-07-17T08:09:24;4.55;;;2.85;;
22754;SDS011;11544;42.020;23.094;2022-07-17T08:11:49;6.35;;;2.70;;
22754;SDS011;11544;42.020;23.094;2022-07-17T08:14:15;9.65;;;2.85;;
22754;SDS011;11544;42.020;23.094;2022-07-17T08:16:41;8.18;;;2.67;;
22754;SDS011;11544;42.020;23.094;2022-07-17T08:19:11;8.30;;;3.75;;
22754;SDS011;11544;42.020;23.094;2022-07-17T08:21:37;5.15;;;2.88;;
22754;SDS011;11544;42.020;23.094;2022-07-17T08:24:03;6.25;;;2.85;;
22754;SDS011;11544;42.020;23.094;2022-07-17T08:26:29;4.03;;;2.50;;
22754;SDS011;11544;42.020;23.094;2022-07-17T08:28:54;7.22;;;2.80;;
22754;SDS011;11544;42.020;23.094;2022-07-17T08:31:20;5.55;;;2.35;;
22754;SDS011;11544;42.020;23.094;2022-07-17T08:33:46;16.10;;;3.63;;
22754;SDS011;11544;42.020;23.094;2022-07-17T08:38:56;8.27;;;2.75;;
22754;SDS011;11544;42.020;23.094;2022-07-17T08:41:22;6.47;;;2.80;;
22754;SDS011;11544;42.020;23.094;2022-07-17T08:43:48;7.07;;;3.15;;
22754;SDS011;11544;42.020;23.094;2022-07-17T08:46:16;11.55;;;3.40;;
22754;SDS011;11544;42.020;23.094;2022-07-17T08:48:43;5.65;;;2.53;;
22754;SDS011;11544;42.020;23.094;2022-07-17T08:51:11;8.05;;;3.15;;
22754;SDS011;11544;42.020;23.094;2022-07-17T08:53:40;4.97;;;2.65;;
22754;SDS011;11544;42.020;23.094;2022-07-17T08:56:07;7.97;;;2.58;;
22754;SDS011;11544;42.020;23.094;2022-07-17T08:58:33;4.20;;;2.55;;
22754;SDS011;11544;42.020;23.094;2022-07-17T09:00:59;3.95;;;2.40;;
22754;SDS011;11544;42.020;23.094;2022-07-17T09:03:25;7.25;;;2.85;;
22754;SDS011;11544;42.020;23.094;2022-07-17T09:05:50;3.85;;;2.40;;
22754;SDS011;11544;42.020;23.094;2022-07-17T09:08:18;5.18;;;2.45;;
22754;SDS011;11544;42.020;23.094;2022-07-17T09:10:46;5.07;;;2.20;;
22754;SDS011;11544;42.020;23.094;2022-07-17T09:15:47;2.80;;;2.33;;
22754;SDS011;11544;42.020;23.094;2022-07-17T09:18:14;5.60;;;2.35;;
22754;SDS011;11544;42.020;23.094;2022-07-17T09:20:44;6.03;;;2.50;;
22754;SDS011;11544;42.020;23.094;2022-07-17T09:23:16;8.45;;;2.22;;
22754;SDS011;11544;42.020;23.094;2022-07-17T09:25:44;2.55;;;2.28;;
22754;SDS011;11544;42.020;23.094;2022-07-17T09:28:13;5.35;;;2.65;;
22754;SDS011;11544;42.020;23.094;2022-07-17T09:30:40;4.85;;;2.42;;
22754;SDS011;11544;42.020;23.094;2022-07-17T09:33:15;5.05;;;2.33;;
22754;SDS011;11544;42.020;23.094;2022-07-17T09:38:29;6.10;;;2.30;;
22754;SDS011;11544;42.020;23.094;2022-07-17T09:41:28;5.57;;;2.22;;
22754;SDS011;11544;42.020;23.094;2022-07-17T09:43:55;7.32;;;2.50;;
22754;SDS011;11544;42.020;23.094;2022-07-17T09:46:25;2.92;;;2.13;;
22754;SDS011;11544;42.020;23.094;2022-07-17T09:48:54;3.60;;;2.30;;
22754;SDS011;11544;42.020;23.094;2022-07-17T09:51:27;3.17;;;2.40;;
22754;SDS011;11544;42.020;23.094;2022-07-17T09:53:58;8.50;;;3.15;;
22754;SDS011;11544;42.020;23.094;2022-07-17T09:56:26;6.78;;;2.45;;
22754;SDS011;11544;42.020;23.094;2022-07-17T09:58:54;6.22;;;2.20;;
22754;SDS011;11544;42.020;23.094;2022-07-17T10:01:22;14.48;;;3.22;;
22754;SDS011;11544;42.020;23.094;2022-07-17T10:03:48;5.10;;;2.60;;
22754;SDS011;11544;42.020;23.094;2022-07-17T10:06:17;4.70;;;2.47;;
22754;SDS011;11544;42.020;23.094;2022-07-17T10:08:43;6.85;;;2.30;;
22754;SDS011;11544;42.020;23.094;2022-07-17T10:11:08;8.25;;;2.53;;
22754;SDS011;11544;42.020;23.094;2022-07-17T10:13:36;5.25;;;2.15;;
22754;SDS011;11544;42.020;23.094;2022-07-17T10:16:05;8.48;;;2.28;;
22754;SDS011;11544;42.020;23.094;2022-07-17T10:18:43;6.90;;;2.78;;
22754;SDS011;11544;42.020;23.094;2022-07-17T10:21:13;3.75;;;2.15;;
22754;SDS011;11544;42.020;23.094;2022-07-17T10:23:42;5.35;;;2.40;;
22754;SDS011;11544;42.020;23.094;2022-07-17T10:26:11;5.50;;;2.90;;
22754;SDS011;11544;42.020;23.094;2022-07-17T10:31:07;8.05;;;2.28;;
22754;SDS011;11544;42.020;23.094;2022-07-17T10:33:34;10.40;;;2.95;;
22754;SDS011;11544;42.020;23.094;2022-07-17T10:36:00;7.25;;;2.33;;
22754;SDS011;11544;42.020;23.094;2022-07-17T10:38:26;8.27;;;3.08;;
22754;SDS011;11544;42.020;23.094;2022-07-17T10:41:08;7.22;;;2.35;;
22754;SDS011;11544;42.020;23.094;2022-07-17T10:43:43;7.13;;;2.35;;
22754;SDS011;11544;42.020;23.094;2022-07-17T10:46:10;3.83;;;1.98;;
22754;SDS011;11544;42.020;23.094;2022-07-17T10:48:38;2.08;;;1.88;;
22754;SDS011;11544;42.020;23.094;2022-07-17T10:51:05;4.55;;;1.98;;
22754;SDS011;11544;42.020;23.094;2022-07-17T10:53:32;5.30;;;2.17;;
22754;SDS011;11544;42.020;23.094;2022-07-17T10:55:59;4.53;;;2.30;;
22754;SDS011;11544;42.020;23.094;2022-07-17T10:58:30;4.20;;;1.83;;
22754;SDS011;11544;42.020;23.094;2022-07-17T11:01:19;5.00;;;2.35;;
22754;SDS011;11544;42.020;23.094;2022-07-17T11:09:00;5.28;;;2.05;;
22754;SDS011;11544;42.020;23.094;2022-07-17T11:14:16;6.82;;;2.00;;
22754;SDS011;11544;42.020;23.094;2022-07-17T11:19:35;3.25;;;2.22;;
22754;SDS011;11544;42.020;23.094;2022-07-17T11:22:05;6.78;;;2.10;;
22754;SDS011;11544;42.020;23.094;2022-07-17T11:27:07;15.75;;;2.65;;
22754;SDS011;11544;42.020;23.094;2022-07-17T11:29:38;4.80;;;2.30;;
22754;SDS011;11544;42.020;23.094;2022-07-17T11:32:05;7.57;;;2.15;;
22754;SDS011;11544;42.020;23.094;2022-07-17T11:34:33;5.45;;;2.40;;
22754;SDS011;11544;42.020;23.094;2022-07-17T11:37:00;6.40;;;2.00;;
22754;SDS011;11544;42.020;23.094;2022-07-17T11:39:35;4.00;;;2.00;;
22754;SDS011;11544;42.020;23.094;2022-07-17T11:42:07;7.22;;;2.50;;
22754;SDS011;11544;42.020;23.094;2022-07-17T11:44:34;3.40;;;2.22;;
22754;SDS011;11544;42.020;23.094;2022-07-17T11:47:03;4.03;;;2.10;;
22754;SDS011;11544;42.020;23.094;2022-07-17T11:49:30;6.00;;;2.03;;
22754;SDS011;11544;42.020;23.094;2022-07-17T11:52:11;5.20;;;2.33;;
22754;SDS011;11544;42.020;23.094;2022-07-17T11:54:48;5.53;;;2.15;;
22754;SDS011;11544;42.020;23.094;2022-07-17T11:57:17;4.85;;;2.10;;
22754;SDS011;11544;42.020;23.094;2022-07-17T11:59:44;8.48;;;2.45;;
22754;SDS011;11544;42.020;23.094;2022-07-17T12:02:12;5.32;;;2.20;;
22754;SDS011;11544;42.020;23.094;2022-07-17T12:04:53;6.88;;;2.22;;
22754;SDS011;11544;42.020;23.094;2022-07-17T12:07:21;5.15;;;2.70;;
22754;SDS011;11544;42.020;23.094;2022-07-17T12:09:47;4.30;;;1.85;;
22754;SDS011;11544;42.020;23.094;2022-07-17T12:14:51;5.00;;;2.20;;
22754;SDS011;11544;42.020;23.094;2022-07-17T12:17:23;4.65;;;2.25;;
22754;SDS011;11544;42.020;23.094;2022-07-17T12:20:03;4.85;;;2.50;;
22754;SDS011;11544;42.020;23.094;2022-07-17T12:22:30;5.20;;;3.40;;
22754;SDS011;11544;42.020;23.094;2022-07-17T12:25:06;6.70;;;2.92;;
22754;SDS011;11544;42.020;23.094;2022-07-17T12:27:33;4.85;;;3.17;;
22754;SDS011;11544;42.020;23.094;2022-07-17T12:29:58;5.13;;;3.20;;
22754;SDS011;11544;42.020;23.094;2022-07-17T12:32:27;4.68;;;3.30;;
22754;SDS011;11544;42.020;23.094;2022-07-17T12:34:52;6.35;;;2.88;;
22754;SDS011;11544;42.020;23.094;2022-07-17T12:37:19;3.92;;;2.75;;
22754;SDS011;11544;42.020;23.094;2022-07-17T12:39:48;7.82;;;2.45;;
22754;SDS011;11544;42.020;23.094;2022-07-17T12:42:14;5.28;;;2.58;;
22754;SDS011;11544;42.020;23.094;2022-07-17T12:44:41;4.60;;;2.55;;
22754;SDS011;11544;42.020;23.094;2022-07-17T12:47:07;4.10;;;2.47;;
22754;SDS011;11544;42.020;23.094;2022-07-17T12:49:33;9.68;;;2.45;;
22754;SDS011;11544;42.020;23.094;2022-07-17T12:51:59;3.85;;;2.58;;
22754;SDS011;11544;42.020;23.094;2022-07-17T12:54:25;8.10;;;2.88;;
22754;SDS011;11544;42.020;23.094;2022-07-17T12:56:51;8.18;;;4.25;;
22754;SDS011;11544;42.020;23.094;2022-07-17T12:59:17;4.38;;;2.60;;
22754;SDS011;11544;42.020;23.094;2022-07-17T13:01:43;7.85;;;4.05;;
22754;SDS011;11544;42.020;23.094;2022-07-17T13:04:10;6.20;;;2.78;;
22754;SDS011;11544;42.020;23.094;2022-07-17T13:06:36;3.85;;;3.05;;
22754;SDS011;11544;42.020;23.094;2022-07-17T13:09:02;2.53;;;2.28;;
22754;SDS011;11544;42.020;23.094;2022-07-17T13:11:28;5.82;;;2.42;;
22754;SDS011;11544;42.020;23.094;2022-07-17T13:13:57;2.40;;;2.13;;
22754;SDS011;11544;42.020;23.094;2022-07-17T13:16:26;6.50;;;2.70;;
22754;SDS011;11544;42.020;23.094;2022-07-17T13:18:52;3.97;;;2.97;;
22754;SDS011;11544;42.020;23.094;2022-07-17T13:21:18;6.35;;;2.63;;
22754;SDS011;11544;42.020;23.094;2022-07-17T13:23:44;4.95;;;2.53;;
22754;SDS011;11544;42.020;23.094;2022-07-17T13:26:10;2.95;;;2.45;;
22754;SDS011;11544;42.020;23.094;2022-07-17T13:28:37;2.88;;;2.50;;
22754;SDS011;11544;42.020;23.094;2022-07-17T13:31:05;2.60;;;2.40;;
22754;SDS011;11544;42.020;23.094;2022-07-17T13:33:31;5.03;;;2.10;;
22754;SDS011;11544;42.020;23.094;2022-07-17T13:35:56;5.30;;;2.22;;
22754;SDS011;11544;42.020;23.094;2022-07-17T13:38:22;5.13;;;2.30;;
22754;SDS011;11544;42.020;23.094;2022-07-17T13:40:48;6.10;;;2.17;;
22754;SDS011;11544;42.020;23.094;2022-07-17T13:43:15;7.47;;;2.40;;
22754;SDS011;11544;42.020;23.094;2022-07-17T13:45:40;5.10;;;1.98;;
22754;SDS011;11544;42.020;23.094;2022-07-17T13:48:06;6.50;;;2.47;;
22754;SDS011;11544;42.020;23.094;2022-07-17T13:50:32;5.50;;;3.35;;
22754;SDS011;11544;42.020;23.094;2022-07-17T13:52:59;5.65;;;2.17;;
22754;SDS011;11544;42.020;23.094;2022-07-17T13:55:25;4.78;;;2.30;;
22754;SDS011;11544;42.020;23.094;2022-07-17T13:57:51;2.33;;;1.90;;
22754;SDS011;11544;42.020;23.094;2022-07-17T14:00:16;7.38;;;2.20;;
22754;SDS011;11544;42.020;23.094;2022-07-17T14:02:42;5.63;;;2.20;;
22754;SDS011;11544;42.020;23.094;2022-07-17T14:05:08;5.70;;;2.40;;
22754;SDS011;11544;42.020;23.094;2022-07-17T14:07:35;4.15;;;2.35;;
22754;SDS011;11544;42.020;23.094;2022-07-17T14:10:01;3.85;;;2.33;;
22754;SDS011;11544;42.020;23.094;2022-07-17T14:12:27;4.63;;;2.50;;
22754;SDS011;11544;42.020;23.094;2022-07-17T14:14:53;4.93;;;2.35;;
22754;SDS011;11544;42.020;23.094;2022-07-17T14:17:18;6.15;;;1.95;;
22754;SDS011;11544;42.020;23.094;2022-07-17T14:19:44;5.72;;;2.22;;
22754;SDS011;11544;42.020;23.094;2022-07-17T14:22:11;3.17;;;1.98;;
22754;SDS011;11544;42.020;23.094;2022-07-17T14:24:37;2.63;;;2.03;;
22754;SDS011;11544;42.020;23.094;2022-07-17T14:27:05;4.38;;;2.13;;
22754;SDS011;11544;42.020;23.094;2022-07-17T14:29:31;4.45;;;2.05;;
22754;SDS011;11544;42.020;23.094;2022-07-17T14:31:56;4.60;;;2.42;;
22754;SDS011;11544;42.020;23.094;2022-07-17T14:34:22;4.18;;;2.40;;
22754;SDS011;11544;42.020;23.094;2022-07-17T14:36:48;4.00;;;2.63;;
22754;SDS011;11544;42.020;23.094;2022-07-17T14:39:15;3.22;;;2.47;;
22754;SDS011;11544;42.020;23.094;2022-07-17T14:41:41;5.88;;;2.53;;
22754;SDS011;11544;42.020;23.094;2022-07-17T14:44:10;5.90;;;2.03;;
22754;SDS011;11544;42.020;23.094;2022-07-17T14:46:36;3.92;;;1.95;;
22754;SDS011;11544;42.020;23.094;2022-07-17T14:49:02;3.30;;;2.22;;
22754;SDS011;11544;42.020;23.094;2022-07-17T14:51:27;6.85;;;2.05;;
22754;SDS011;11544;42.020;23.094;2022-07-17T14:53:53;11.57;;;2.55;;
22754;SDS011;11544;42.020;23.094;2022-07-17T14:56:21;4.57;;;2.00;;
22754;SDS011;11544;42.020;23.094;2022-07-17T14:58:47;4.75;;;2.10;;
22754;SDS011;11544;42.020;23.094;2022-07-17T15:01:13;4.40;;;1.98;;